createdAt,value
2023-01-06T00:00:32.546Z,100604.56
2023-01-06T00:02:59.123Z,100603.78
2023-01-06T00:05:26.099Z,100607.84
2023-01-06T00:07:53.107Z,100598.59
2023-01-06T00:10:20.334Z,100595.53
2023-01-06T00:12:48.479Z,100590.00
2023-01-06T00:15:16.519Z,100591.59
2023-01-06T00:17:43.227Z,100609.19
2023-01-06T00:20:11.174Z,100617.78
2023-01-06T00:22:40.244Z,100611.56
2023-01-06T00:25:07.345Z,100613.28
2023-01-06T00:27:33.839Z,100606.31
2023-01-06T00:30:00.355Z,100600.91
2023-01-06T00:32:26.870Z,100607.28
2023-01-06T00:34:53.405Z,100606.56
2023-01-06T00:37:20.043Z,100593.22
2023-01-06T00:39:46.531Z,100591.50
2023-01-06T00:42:13.170Z,100598.28
2023-01-06T00:44:40.365Z,100587.34
2023-01-06T00:47:09.260Z,100597.88
2023-01-06T00:49:36.201Z,100583.00
2023-01-06T00:52:03.724Z,100568.50
2023-01-06T00:54:30.288Z,100550.34
2023-01-06T00:56:57.025Z,100538.31
2023-01-06T00:59:25.261Z,100530.63
2023-01-06T01:01:55.078Z,100530.44
2023-01-06T01:04:24.026Z,100540.94
2023-01-06T01:06:51.457Z,100528.13
2023-01-06T01:09:30.260Z,100533.59
2023-01-06T01:12:10.150Z,100517.19
2023-01-06T01:14:42.428Z,100509.59
2023-01-06T01:17:10.875Z,100524.31
2023-01-06T01:19:38.668Z,100537.38
2023-01-06T01:22:06.115Z,100540.97
2023-01-06T01:24:32.877Z,100543.25
2023-01-06T01:26:59.824Z,100537.31
2023-01-06T01:29:26.833Z,100543.06
2023-01-06T01:31:53.858Z,100554.56
2023-01-06T01:34:21.401Z,100551.84
2023-01-06T01:36:49.778Z,100548.50
2023-01-06T01:39:18.847Z,100529.06
2023-01-06T01:41:45.734Z,100529.69
2023-01-06T01:44:54.702Z,100539.69
2023-01-06T01:47:27.320Z,100539.59
2023-01-06T01:49:58.572Z,100543.56
2023-01-06T01:52:25.885Z,100541.56
2023-01-06T01:54:55.472Z,100541.72
2023-01-06T01:57:29.780Z,100524.75
2023-01-06T01:59:57.460Z,100524.28
2023-01-06T02:02:24.703Z,100530.41
2023-01-06T02:04:54.968Z,100526.28
2023-01-06T02:07:25.264Z,100529.38
2023-01-06T02:10:02.355Z,100512.88
2023-01-06T02:12:29.294Z,100527.22
2023-01-06T02:14:56.675Z,100536.44
2023-01-06T02:17:49.733Z,100541.00
2023-01-06T02:20:34.166Z,100555.81
2023-01-06T02:23:18.798Z,100546.69
2023-01-06T02:25:54.015Z,100558.13
2023-01-06T02:28:39.820Z,100560.47
2023-01-06T02:31:31.045Z,100573.34
2023-01-06T02:34:03.569Z,100558.56
2023-01-06T02:36:48.285Z,100574.34
2023-01-06T02:39:47.947Z,100581.63
2023-01-06T02:42:24.778Z,100590.59
2023-01-06T02:45:21.789Z,100620.03
2023-01-06T02:48:07.927Z,100616.44
2023-01-06T02:50:37.040Z,100610.94
2023-01-06T02:53:24.735Z,100616.88
2023-01-06T02:55:53.939Z,100613.47
2023-01-06T02:58:42.509Z,100625.81
2023-01-06T03:01:22.725Z,100628.38
2023-01-06T03:03:51.732Z,100638.88
2023-01-06T03:06:22.449Z,100652.09
2023-01-06T03:08:52.128Z,100657.84
2023-01-06T03:11:18.931Z,100652.09
2023-01-06T03:14:05.951Z,100643.75
2023-01-06T03:16:32.499Z,100636.38
2023-01-06T03:18:59.556Z,100626.53
2023-01-06T03:21:31.922Z,100624.34
2023-01-06T03:23:58.628Z,100617.50
2023-01-06T03:26:26.418Z,100619.34
2023-01-06T03:28:53.035Z,100628.19
2023-01-06T03:31:34.556Z,100617.38
2023-01-06T03:34:07.023Z,100615.81
2023-01-06T03:37:11.931Z,100608.13
2023-01-06T03:39:47.118Z,100608.81
2023-01-06T03:43:03.967Z,100629.16
2023-01-06T03:45:50.868Z,100626.78
2023-01-06T03:48:34.234Z,100612.03
2023-01-06T03:51:10.122Z,100628.97
2023-01-06T03:53:46.774Z,100627.09
2023-01-06T03:56:25.590Z,100639.03
2023-01-06T03:58:57.256Z,100636.53
2023-01-06T04:01:26.558Z,100640.13
2023-01-06T04:03:55.586Z,100635.06
2023-01-06T04:06:22.671Z,100613.81
2023-01-06T04:08:49.308Z,100616.44
2023-01-06T04:11:34.540Z,100613.19
2023-01-06T04:14:01.643Z,100628.66
2023-01-06T04:16:28.242Z,100627.22
2023-01-06T04:18:54.939Z,100628.88
2023-01-06T04:21:21.531Z,100627.91
2023-01-06T04:23:48.099Z,100632.78
2023-01-06T04:26:14.668Z,100616.06
2023-01-06T04:28:41.286Z,100614.00
2023-01-06T04:31:10.021Z,100613.34
2023-01-06T04:33:36.602Z,100617.84
2023-01-06T04:36:03.736Z,100624.19
2023-01-06T04:38:30.393Z,100634.59
2023-01-06T04:40:56.953Z,100639.63
2023-01-06T04:43:24.216Z,100644.63
2023-01-06T04:45:50.858Z,100633.16
2023-01-06T04:48:17.572Z,100634.63
2023-01-06T04:50:44.354Z,100645.59
2023-01-06T04:53:12.315Z,100638.03
2023-01-06T04:55:40.322Z,100637.25
2023-01-06T04:58:07.260Z,100621.59
2023-01-06T05:00:34.821Z,100627.63
2023-01-06T05:03:01.334Z,100627.09
2023-01-06T05:05:27.866Z,100618.56
2023-01-06T05:07:54.992Z,100615.16
2023-01-06T05:10:21.939Z,100614.59
2023-01-06T05:12:48.508Z,100627.47
2023-01-06T05:15:15.048Z,100616.59
2023-01-06T05:17:41.549Z,100633.53
2023-01-06T05:20:08.636Z,100628.38
2023-01-06T05:22:35.537Z,100632.41
2023-01-06T05:25:02.138Z,100627.38
2023-01-06T05:27:28.755Z,100612.78
2023-01-06T05:29:55.275Z,100605.59
2023-01-06T05:32:21.861Z,100624.78
2023-01-06T05:34:48.437Z,100620.81
2023-01-06T05:37:14.911Z,100618.56
2023-01-06T05:39:41.401Z,100608.81
2023-01-06T05:42:07.908Z,100604.53
2023-01-06T05:44:34.477Z,100601.41
2023-01-06T05:47:01.092Z,100601.69
2023-01-06T05:49:27.676Z,100603.56
2023-01-06T05:51:54.195Z,100605.50
2023-01-06T05:54:20.763Z,100610.53
2023-01-06T05:56:47.316Z,100602.00
2023-01-06T05:59:13.818Z,100606.25
2023-01-06T06:01:40.365Z,100593.06
2023-01-06T06:04:07.451Z,100596.97
2023-01-06T06:06:34.065Z,100584.53
2023-01-06T06:09:00.906Z,100585.50
2023-01-06T06:11:27.462Z,100596.91
2023-01-06T06:13:56.293Z,100587.00
2023-01-06T06:16:27.994Z,100572.81
2023-01-06T06:18:57.295Z,100572.53
2023-01-06T06:21:26.584Z,100568.94
2023-01-06T06:23:54.423Z,100583.75
2023-01-06T06:26:21.505Z,100595.69
2023-01-06T06:28:48.029Z,100585.34
2023-01-06T06:31:26.322Z,100601.06
2023-01-06T06:33:55.799Z,100611.75
2023-01-06T06:36:22.983Z,100614.69
2023-01-06T06:38:51.519Z,100608.56
2023-01-06T06:41:19.293Z,100607.13
2023-01-06T06:43:46.240Z,100601.78
2023-01-06T06:46:12.748Z,100612.56
2023-01-06T06:48:40.038Z,100615.56
2023-01-06T06:51:12.399Z,100619.72
2023-01-06T06:53:40.005Z,100621.69
2023-01-06T06:56:08.027Z,100621.47
2023-01-06T06:58:35.929Z,100624.31
2023-01-06T07:01:13.549Z,100623.78
2023-01-06T07:03:41.128Z,100618.41
2023-01-06T07:06:10.650Z,100608.88
2023-01-06T07:08:37.324Z,100606.16
2023-01-06T07:11:04.827Z,100617.19
2023-01-06T07:13:31.427Z,100610.06
2023-01-06T07:15:58.205Z,100614.66
2023-01-06T07:18:24.974Z,100614.81
2023-01-06T07:20:53.733Z,100624.09
2023-01-06T07:23:21.163Z,100619.16
2023-01-06T07:25:55.840Z,100626.88
2023-01-06T07:28:22.450Z,100632.47
2023-01-06T07:30:49.182Z,100645.84
2023-01-06T07:33:16.192Z,100655.25
2023-01-06T07:35:43.527Z,100656.25
2023-01-06T07:38:10.785Z,100655.97
2023-01-06T07:40:37.962Z,100652.19
2023-01-06T07:43:09.552Z,100667.06
2023-01-06T07:45:36.937Z,100670.59
2023-01-06T07:48:04.068Z,100674.88
2023-01-06T07:50:31.380Z,100678.59
2023-01-06T07:52:59.149Z,100678.00
2023-01-06T07:55:25.828Z,100685.56
2023-01-06T07:57:52.880Z,100682.22
2023-01-06T08:00:19.716Z,100681.16
2023-01-06T08:02:46.275Z,100680.47
2023-01-06T08:05:13.251Z,100672.00
2023-01-06T08:07:39.760Z,100681.50
2023-01-06T08:10:07.301Z,100685.00
2023-01-06T08:12:33.860Z,100678.69
2023-01-06T08:15:00.505Z,100688.50
2023-01-06T08:17:27.016Z,100686.69
2023-01-06T08:19:53.500Z,100687.72
2023-01-06T08:22:20.294Z,100683.03
2023-01-06T08:24:46.786Z,100687.66
2023-01-06T08:27:13.673Z,100691.72
2023-01-06T08:29:40.259Z,100694.03
2023-01-06T08:32:10.847Z,100694.03
2023-01-06T08:34:38.182Z,100698.25
2023-01-06T08:37:04.844Z,100700.81
2023-01-06T08:39:31.645Z,100702.72
2023-01-06T08:41:58.149Z,100705.38
2023-01-06T08:44:24.700Z,100710.53
2023-01-06T08:46:51.393Z,100709.97
2023-01-06T08:49:17.930Z,100711.00
2023-01-06T08:51:44.506Z,100708.06
2023-01-06T08:54:11.086Z,100713.63
2023-01-06T08:56:39.652Z,100713.44
2023-01-06T08:59:06.540Z,100719.44
2023-01-06T09:01:36.236Z,100712.50
2023-01-06T09:04:05.974Z,100717.34
2023-01-06T09:06:33.380Z,100726.19
2023-01-06T09:09:01.066Z,100731.53
2023-01-06T09:11:27.757Z,100741.47
2023-01-06T09:13:54.651Z,100739.38
2023-01-06T09:16:22.247Z,100738.06
2023-01-06T09:18:50.157Z,100736.75
2023-01-06T09:21:19.072Z,100747.09
2023-01-06T09:23:46.423Z,100750.63
2023-01-06T09:26:14.229Z,100749.56
2023-01-06T09:28:41.355Z,100751.28
2023-01-06T09:31:08.832Z,100751.16
2023-01-06T09:33:35.743Z,100754.81
2023-01-06T09:36:02.536Z,100754.69
2023-01-06T09:38:29.697Z,100752.66
2023-01-06T09:41:26.962Z,100758.56
2023-01-06T09:43:59.281Z,100754.53
2023-01-06T09:46:31.431Z,100757.78
2023-01-06T09:49:41.592Z,100764.31
2023-01-06T09:52:23.039Z,100765.13
2023-01-06T09:55:14.299Z,100766.50
2023-01-06T09:57:46.335Z,100754.44
2023-01-06T10:00:53.490Z,100767.72
2023-01-06T10:03:23.337Z,100764.81
2023-01-06T10:06:08.975Z,100761.84
2023-01-06T10:08:59.778Z,100765.72
2023-01-06T10:11:48.057Z,100766.25
2023-01-06T10:14:23.570Z,100766.84
2023-01-06T10:17:08.419Z,100772.84
2023-01-06T10:19:50.562Z,100775.97
2023-01-06T10:22:42.156Z,100771.28
2023-01-06T10:25:27.673Z,100773.91
2023-01-06T10:28:01.677Z,100769.47
2023-01-06T10:30:56.131Z,100762.47
2023-01-06T10:33:28.573Z,100764.41
2023-01-06T10:35:56.932Z,100762.63
2023-01-06T10:38:30.144Z,100758.78
2023-01-06T10:41:10.768Z,100759.38
2023-01-06T10:43:37.305Z,100754.75
2023-01-06T10:46:03.977Z,100753.03
2023-01-06T10:48:32.629Z,100749.53
2023-01-06T10:51:06.869Z,100745.91
2023-01-06T10:53:33.535Z,100741.50
2023-01-06T10:56:02.370Z,100743.91
2023-01-06T10:58:46.475Z,100742.94
2023-01-06T11:01:15.785Z,100739.94
2023-01-06T11:03:45.700Z,100739.03
2023-01-06T11:06:27.898Z,100728.03
2023-01-06T11:08:55.348Z,100729.25
2023-01-06T11:11:28.143Z,100727.25
2023-01-06T11:14:02.273Z,100722.81
2023-01-06T11:16:32.166Z,100720.97
2023-01-06T11:19:03.570Z,100725.34
2023-01-06T11:21:45.384Z,100714.72
2023-01-06T11:24:26.822Z,100712.34
2023-01-06T11:27:30.902Z,100714.72
2023-01-06T11:29:57.460Z,100704.03
2023-01-06T11:32:29.591Z,100694.09
2023-01-06T11:34:58.547Z,100698.19
2023-01-06T11:37:37.757Z,100688.47
2023-01-06T11:40:17.949Z,100695.16
2023-01-06T11:42:49.289Z,100691.81
2023-01-06T11:45:43.513Z,100687.09
2023-01-06T11:48:37.241Z,100686.38
2023-01-06T11:51:06.470Z,100684.59
2023-01-06T11:53:34.447Z,100688.81
2023-01-06T11:56:19.201Z,100669.66
2023-01-06T11:59:03.765Z,100675.41
2023-01-06T12:01:33.503Z,100678.41
2023-01-06T12:04:27.313Z,100666.91
2023-01-06T12:07:03.589Z,100671.41
2023-01-06T12:09:36.714Z,100668.97
2023-01-06T12:12:07.700Z,100662.34
2023-01-06T12:14:37.475Z,100663.53
2023-01-06T12:17:12.891Z,100661.38
2023-01-06T12:19:45.125Z,100650.84
2023-01-06T12:22:35.581Z,100650.56
2023-01-06T12:25:03.695Z,100653.22
2023-01-06T12:27:45.709Z,100648.53
2023-01-06T12:30:25.874Z,100641.69
2023-01-06T12:32:56.830Z,100634.69
2023-01-06T12:35:29.467Z,100625.38
2023-01-06T12:38:01.627Z,100623.88
2023-01-06T12:40:36.863Z,100624.03
2023-01-06T12:43:30.956Z,100615.03
2023-01-06T12:46:21.368Z,100610.59
2023-01-06T12:48:53.631Z,100611.81
2023-01-06T12:51:38.019Z,100595.19
2023-01-06T12:54:17.381Z,100599.53
2023-01-06T12:57:12.944Z,100589.66
2023-01-06T12:59:57.883Z,100587.22
2023-01-06T13:03:04.011Z,100586.00
2023-01-06T13:05:47.574Z,100572.94
2023-01-06T13:08:32.505Z,100576.47
2023-01-06T13:10:59.215Z,100572.38
2023-01-06T13:13:39.863Z,100559.69
2023-01-06T13:16:29.073Z,100571.19
2023-01-06T13:19:14.816Z,100565.84
2023-01-06T13:21:43.577Z,100558.84
2023-01-06T13:24:34.567Z,100567.25
2023-01-06T13:27:22.126Z,100559.88
2023-01-06T13:30:13.267Z,100566.75
2023-01-06T13:32:51.855Z,100564.13
2023-01-06T13:35:24.403Z,100563.09
2023-01-06T13:38:35.081Z,100562.44
2023-01-06T13:41:04.313Z,100564.19
2023-01-06T13:43:34.456Z,100564.22
2023-01-06T13:46:06.190Z,100566.78
2023-01-06T13:48:37.862Z,100559.97
2023-01-06T13:51:07.712Z,100557.41
2023-01-06T13:53:38.439Z,100554.38
2023-01-06T13:56:14.067Z,100562.16
2023-01-06T13:58:45.464Z,100558.28
2023-01-06T14:01:13.006Z,100559.53
2023-01-06T14:03:41.414Z,100552.69
2023-01-06T14:06:38.146Z,100550.44
2023-01-06T14:09:15.763Z,100548.47
2023-01-06T14:11:42.535Z,100551.94
2023-01-06T14:14:30.785Z,100552.63
2023-01-06T14:16:58.176Z,100556.00
2023-01-06T14:19:35.193Z,100549.28
2023-01-06T14:22:32.312Z,100547.59
2023-01-06T14:25:05.308Z,100549.22
2023-01-06T14:27:46.904Z,100549.03
2023-01-06T14:30:30.721Z,100548.44
2023-01-06T14:33:21.691Z,100547.31
2023-01-06T14:35:48.922Z,100540.72
2023-01-06T14:38:26.965Z,100544.16
2023-01-06T14:40:59.059Z,100539.78
2023-01-06T14:43:35.027Z,100538.66
2023-01-06T14:46:08.685Z,100538.03
2023-01-06T14:48:42.624Z,100537.31
2023-01-06T14:51:16.259Z,100540.44
2023-01-06T14:53:49.338Z,100526.06
2023-01-06T14:56:19.840Z,100531.81
2023-01-06T14:58:46.573Z,100528.53
2023-01-06T15:01:25.606Z,100519.53
2023-01-06T15:03:58.583Z,100519.66
2023-01-06T15:06:26.709Z,100517.44
2023-01-06T15:08:55.442Z,100518.75
2023-01-06T15:11:28.279Z,100510.63
2023-01-06T15:13:55.301Z,100513.09
2023-01-06T15:16:38.040Z,100514.81
2023-01-06T15:19:15.451Z,100512.31
2023-01-06T15:21:45.332Z,100517.19
2023-01-06T15:24:35.516Z,100512.63
2023-01-06T15:27:07.530Z,100516.25
2023-01-06T15:29:35.667Z,100509.59
2023-01-06T15:32:03.534Z,100508.75
2023-01-06T15:34:37.935Z,100507.59
2023-01-06T15:37:06.687Z,100501.22
2023-01-06T15:39:35.473Z,100498.78
2023-01-06T15:42:07.616Z,100497.81
2023-01-06T15:44:38.725Z,100495.09
2023-01-06T15:47:11.223Z,100500.16
2023-01-06T15:49:42.653Z,100491.31
2023-01-06T15:52:32.666Z,100481.16
2023-01-06T15:55:02.067Z,100481.88
2023-01-06T15:57:32.900Z,100475.63
2023-01-06T16:00:05.933Z,100482.03
2023-01-06T16:02:33.566Z,100481.66
2023-01-06T16:05:01.195Z,100477.16
2023-01-06T16:07:36.562Z,100478.91
2023-01-06T16:10:03.673Z,100472.44
2023-01-06T16:12:30.220Z,100472.81
2023-01-06T16:14:56.779Z,100472.63
2023-01-06T16:17:33.257Z,100467.28
2023-01-06T16:20:08.200Z,100466.28
2023-01-06T16:22:57.556Z,100461.09
2023-01-06T16:25:28.457Z,100464.59
2023-01-06T16:27:58.630Z,100462.09
2023-01-06T16:30:30.788Z,100463.66
2023-01-06T16:33:00.308Z,100459.19
2023-01-06T16:35:29.042Z,100459.19
2023-01-06T16:37:56.240Z,100458.13
2023-01-06T16:40:25.110Z,100442.75
2023-01-06T16:43:00.477Z,100426.75
2023-01-06T16:45:31.713Z,100433.28
2023-01-06T16:47:58.835Z,100430.00
2023-01-06T16:50:54.869Z,100432.19
2023-01-06T16:53:23.053Z,100426.91
2023-01-06T16:55:52.025Z,100423.31
2023-01-06T16:58:22.954Z,100422.88
2023-01-06T17:00:52.524Z,100416.69
2023-01-06T17:03:24.843Z,100416.84
2023-01-06T17:05:52.599Z,100412.16
2023-01-06T17:08:27.877Z,100411.78
2023-01-06T17:10:54.973Z,100409.72
2023-01-06T17:13:44.294Z,100404.56
2023-01-06T17:16:11.953Z,100403.00
2023-01-06T17:18:59.968Z,100390.03
2023-01-06T17:21:45.147Z,100372.41
2023-01-06T17:24:25.600Z,100366.19
2023-01-06T17:26:57.086Z,100361.78
2023-01-06T17:29:24.308Z,100357.25
2023-01-06T17:31:55.122Z,100349.94
2023-01-06T17:34:34.207Z,100339.47
2023-01-06T17:37:15.754Z,100329.13
2023-01-06T17:39:44.754Z,100328.06
2023-01-06T17:42:11.759Z,100323.81
2023-01-06T17:44:48.265Z,100319.34
2023-01-06T17:47:15.127Z,100316.38
2023-01-06T17:49:47.764Z,100298.31
2023-01-06T17:52:19.239Z,100297.31
2023-01-06T17:55:12.847Z,100294.63
2023-01-06T17:57:42.134Z,100273.91
2023-01-06T18:00:22.312Z,100267.13
2023-01-06T18:02:55.028Z,100254.28
2023-01-06T18:05:24.450Z,100253.84
2023-01-06T18:07:54.091Z,100243.38
2023-01-06T18:10:21.624Z,100221.75
2023-01-06T18:12:48.356Z,100224.41
2023-01-06T18:15:27.061Z,100234.63
2023-01-06T18:17:55.727Z,100223.13
2023-01-06T18:20:22.389Z,100228.06
2023-01-06T18:22:49.125Z,100231.44
2023-01-06T18:25:22.175Z,100217.59
2023-01-06T18:27:51.027Z,100208.13
2023-01-06T18:30:24.669Z,100202.88
2023-01-06T18:32:52.062Z,100194.56
2023-01-06T18:35:30.520Z,100181.09
2023-01-06T18:38:02.456Z,100183.75
2023-01-06T18:40:30.635Z,100187.31
2023-01-06T18:42:57.522Z,100184.34
2023-01-06T18:45:29.027Z,100179.16
2023-01-06T18:48:00.662Z,100175.84
2023-01-06T18:50:34.086Z,100169.25
2023-01-06T18:53:14.357Z,100172.63
2023-01-06T18:55:46.612Z,100165.88
2023-01-06T18:58:23.227Z,100162.75
2023-01-06T19:00:52.868Z,100172.94
2023-01-06T19:03:29.153Z,100163.59
2023-01-06T19:06:10.759Z,100176.41
2023-01-06T19:08:40.323Z,100182.53
2023-01-06T19:11:32.327Z,100183.97
2023-01-06T19:14:01.791Z,100181.97
2023-01-06T19:16:39.521Z,100174.19
2023-01-06T19:19:18.400Z,100169.00
2023-01-06T19:21:45.246Z,100162.84
2023-01-06T19:24:26.772Z,100152.47
2023-01-06T19:26:54.833Z,100155.91
2023-01-06T19:29:27.347Z,100152.47
2023-01-06T19:32:13.224Z,100150.06
2023-01-06T19:34:40.020Z,100137.03
2023-01-06T19:37:18.203Z,100131.25
2023-01-06T19:39:50.305Z,100128.50
2023-01-06T19:42:27.208Z,100126.50
2023-01-06T19:44:58.474Z,100128.00
2023-01-06T19:47:27.940Z,100124.44
2023-01-06T19:49:58.699Z,100123.31
2023-01-06T19:52:35.594Z,100107.00
2023-01-06T19:55:14.287Z,100101.13
2023-01-06T19:57:49.664Z,100096.41
2023-01-06T20:00:29.713Z,100100.59
2023-01-06T20:02:59.458Z,100097.72
2023-01-06T20:05:27.571Z,100091.69
2023-01-06T20:07:54.521Z,100094.25
2023-01-06T20:10:21.418Z,100085.50
2023-01-06T20:12:49.132Z,100087.13
2023-01-06T20:15:16.171Z,100067.97
2023-01-06T20:17:42.776Z,100067.13
2023-01-06T20:20:09.723Z,100051.69
2023-01-06T20:22:36.438Z,100050.63
2023-01-06T20:25:03.354Z,100047.16
2023-01-06T20:27:29.817Z,100046.09
2023-01-06T20:29:56.421Z,100035.00
2023-01-06T20:32:24.099Z,100034.09
2023-01-06T20:34:50.633Z,100030.63
2023-01-06T20:37:17.326Z,100024.56
2023-01-06T20:39:43.880Z,100032.88
2023-01-06T20:42:13.168Z,100026.59
2023-01-06T20:44:39.911Z,100020.72
2023-01-06T20:47:06.576Z,100018.88
2023-01-06T20:49:33.206Z,100016.94
2023-01-06T20:51:59.924Z,100013.47
2023-01-06T20:54:26.400Z,100024.41
2023-01-06T20:56:53.893Z,100006.03
2023-01-06T20:59:21.214Z,100001.94
2023-01-06T21:01:47.882Z,99998.44
2023-01-06T21:04:14.592Z,99993.28
2023-01-06T21:06:41.266Z,99996.63
2023-01-06T21:09:07.946Z,99997.47
2023-01-06T21:11:34.450Z,99993.97
2023-01-06T21:14:00.947Z,99981.94
2023-01-06T21:16:27.512Z,99983.81
2023-01-06T21:18:54.098Z,99977.72
2023-01-06T21:21:21.745Z,99970.00
2023-01-06T21:23:48.254Z,99967.59
2023-01-06T21:26:14.900Z,99968.66
2023-01-06T21:28:41.394Z,99960.59
2023-01-06T21:31:08.026Z,99962.31
2023-01-06T21:33:34.652Z,99965.13
2023-01-06T21:36:01.203Z,99958.97
2023-01-06T21:38:27.737Z,99970.78
2023-01-06T21:41:14.204Z,99966.22
2023-01-06T21:43:40.718Z,99971.16
2023-01-06T21:46:07.333Z,99962.63
2023-01-06T21:48:33.871Z,99964.44
2023-01-06T21:51:00.543Z,99956.16
2023-01-06T21:53:29.225Z,99957.72
2023-01-06T21:55:55.785Z,99952.47
2023-01-06T21:58:23.658Z,99946.38
2023-01-06T22:00:50.191Z,99947.91
2023-01-06T22:03:16.918Z,99944.53
2023-01-06T22:05:44.198Z,99941.38
2023-01-06T22:08:10.960Z,99951.88
2023-01-06T22:10:42.367Z,99951.56
2023-01-06T22:13:12.724Z,99941.72
2023-01-06T22:15:40.226Z,99943.75
2023-01-06T22:18:07.422Z,99945.75
2023-01-06T22:20:34.951Z,99937.00
2023-01-06T22:23:05.900Z,99943.22
2023-01-06T22:25:32.569Z,99941.38
2023-01-06T22:27:59.190Z,99944.09
2023-01-06T22:30:27.035Z,99941.44
2023-01-06T22:32:53.575Z,99943.97
2023-01-06T22:35:20.142Z,99943.34
2023-01-06T22:37:46.713Z,99943.81
2023-01-06T22:40:14.837Z,99941.38
2023-01-06T22:42:41.866Z,99945.75
2023-01-06T22:45:09.272Z,99953.13
2023-01-06T22:47:36.061Z,99956.38
2023-01-06T22:50:03.076Z,99958.69
2023-01-06T22:52:29.686Z,99962.97
2023-01-06T22:54:56.213Z,99968.88
2023-01-06T22:57:22.923Z,99963.63
2023-01-06T22:59:49.459Z,99963.31
2023-01-06T23:02:16.146Z,99957.34
2023-01-06T23:04:42.762Z,99968.66
2023-01-06T23:07:09.361Z,99976.88
2023-01-06T23:09:36.176Z,99963.19
2023-01-06T23:12:02.757Z,99955.41
2023-01-06T23:14:29.342Z,99951.63
2023-01-06T23:16:55.888Z,99951.38
2023-01-06T23:19:22.363Z,99954.44
2023-01-06T23:21:48.933Z,99964.50
2023-01-06T23:24:15.528Z,99964.63
2023-01-06T23:26:44.681Z,99973.97
2023-01-06T23:29:12.255Z,99966.75
2023-01-06T23:31:44.639Z,99959.41
2023-01-06T23:34:14.073Z,99954.84
2023-01-06T23:36:41.642Z,99945.72
2023-01-06T23:39:12.171Z,99946.19
2023-01-06T23:41:38.893Z,99929.81
2023-01-06T23:44:06.246Z,99926.09
2023-01-06T23:46:38.527Z,99922.66
2023-01-06T23:49:06.196Z,99916.06
2023-01-06T23:51:33.382Z,99916.06
2023-01-06T23:54:01.582Z,99907.81
2023-01-06T23:56:30.892Z,99899.22
2023-01-06T23:58:59.933Z,99893.41
